sensor_id;sensor_type;location;lat;lon;timestamp;P1;durP1;ratioP1;P2;durP2;ratioP2
5549;SDS011;2798;42.716;23.256;2023-02-28T00:01:05;9.17;;;6.73;;
5549;SDS011;2798;42.716;23.256;2023-02-28T00:03:30;11.63;;;6.97;;
5549;SDS011;2798;42.716;23.256;2023-02-28T00:05:55;11.30;;;7.10;;
5549;SDS011;2798;42.716;23.256;2023-02-28T00:08:21;9.63;;;7.57;;
5549;SDS011;2798;42.716;23.256;2023-02-28T00:10:46;13.13;;;8.70;;
5549;SDS011;2798;42.716;23.256;2023-02-28T00:13:11;11.40;;;8.30;;
5549;SDS011;2798;42.716;23.256;2023-02-28T00:15:36;12.40;;;8.57;;
5549;SDS011;2798;42.716;23.256;2023-02-28T00:18:02;11.70;;;7.97;;
5549;SDS011;2798;42.716;23.256;2023-02-28T00:20:28;14.50;;;9.40;;
5549;SDS011;2798;42.716;23.256;2023-02-28T00:22:53;14.23;;;9.57;;
5549;SDS011;2798;42.716;23.256;2023-02-28T00:25:20;14.43;;;9.40;;
5549;SDS011;2798;42.716;23.256;2023-02-28T00:27:46;10.17;;;7.97;;
5549;SDS011;2798;42.716;23.256;2023-02-28T00:30:12;12.33;;;8.47;;
5549;SDS011;2798;42.716;23.256;2023-02-28T00:32:38;12.93;;;8.60;;
5549;SDS011;2798;42.716;23.256;2023-02-28T00:35:03;15.33;;;8.63;;
5549;SDS011;2798;42.716;23.256;2023-02-28T00:37:29;15.50;;;8.83;;
5549;SDS011;2798;42.716;23.256;2023-02-28T00:39:54;16.67;;;10.17;;
5549;SDS011;2798;42.716;23.256;2023-02-28T00:42:19;12.97;;;8.90;;
5549;SDS011;2798;42.716;23.256;2023-02-28T00:44:44;15.33;;;10.07;;
5549;SDS011;2798;42.716;23.256;2023-02-28T00:47:10;14.70;;;9.70;;
5549;SDS011;2798;42.716;23.256;2023-02-28T00:49:35;15.20;;;10.07;;
5549;SDS011;2798;42.716;23.256;2023-02-28T00:52:00;12.33;;;8.23;;
5549;SDS011;2798;42.716;23.256;2023-02-28T00:54:25;12.97;;;8.67;;
5549;SDS011;2798;42.716;23.256;2023-02-28T00:56:51;13.93;;;8.63;;
5549;SDS011;2798;42.716;23.256;2023-02-28T00:59:16;13.50;;;8.40;;
5549;SDS011;2798;42.716;23.256;2023-02-28T01:01:42;12.70;;;9.00;;
5549;SDS011;2798;42.716;23.256;2023-02-28T01:04:07;12.60;;;7.53;;
5549;SDS011;2798;42.716;23.256;2023-02-28T01:06:32;13.77;;;8.53;;
5549;SDS011;2798;42.716;23.256;2023-02-28T01:08:58;13.40;;;8.63;;
5549;SDS011;2798;42.716;23.256;2023-02-28T01:11:23;14.23;;;9.43;;
5549;SDS011;2798;42.716;23.256;2023-02-28T01:13:49;12.83;;;8.30;;
5549;SDS011;2798;42.716;23.256;2023-02-28T01:16:14;12.77;;;8.60;;
5549;SDS011;2798;42.716;23.256;2023-02-28T01:18:39;13.50;;;9.40;;
5549;SDS011;2798;42.716;23.256;2023-02-28T01:21:09;14.60;;;8.40;;
5549;SDS011;2798;42.716;23.256;2023-02-28T01:23:35;14.10;;;8.67;;
5549;SDS011;2798;42.716;23.256;2023-02-28T01:26:07;12.50;;;8.70;;
5549;SDS011;2798;42.716;23.256;2023-02-28T01:28:33;12.53;;;8.00;;
5549;SDS011;2798;42.716;23.256;2023-02-28T01:30:58;11.30;;;8.03;;
5549;SDS011;2798;42.716;23.256;2023-02-28T01:33:23;11.80;;;8.17;;
5549;SDS011;2798;42.716;23.256;2023-02-28T01:35:49;12.13;;;7.80;;
5549;SDS011;2798;42.716;23.256;2023-02-28T01:38:14;13.33;;;8.50;;
5549;SDS011;2798;42.716;23.256;2023-02-28T01:40:39;11.70;;;7.60;;
5549;SDS011;2798;42.716;23.256;2023-02-28T01:43:10;13.80;;;8.17;;
5549;SDS011;2798;42.716;23.256;2023-02-28T01:45:42;13.57;;;8.60;;
5549;SDS011;2798;42.716;23.256;2023-02-28T01:48:07;12.80;;;8.00;;
5549;SDS011;2798;42.716;23.256;2023-02-28T01:50:38;15.50;;;9.00;;
5549;SDS011;2798;42.716;23.256;2023-02-28T01:53:05;13.20;;;8.00;;
5549;SDS011;2798;42.716;23.256;2023-02-28T01:55:31;11.87;;;8.40;;
5549;SDS011;2798;42.716;23.256;2023-02-28T01:57:58;11.57;;;8.60;;
5549;SDS011;2798;42.716;23.256;2023-02-28T02:00:25;11.90;;;7.40;;
5549;SDS011;2798;42.716;23.256;2023-02-28T02:02:56;13.33;;;8.63;;
5549;SDS011;2798;42.716;23.256;2023-02-28T02:05:26;12.13;;;8.10;;
5549;SDS011;2798;42.716;23.256;2023-02-28T02:08:12;10.70;;;7.70;;
5549;SDS011;2798;42.716;23.256;2023-02-28T02:10:45;11.50;;;8.20;;
5549;SDS011;2798;42.716;23.256;2023-02-28T02:23:48;15.73;;;8.53;;
5549;SDS011;2798;42.716;23.256;2023-02-28T02:26:30;15.13;;;8.00;;
5549;SDS011;2798;42.716;23.256;2023-02-28T02:34:19;11.80;;;7.57;;
5549;SDS011;2798;42.716;23.256;2023-02-28T02:37:01;11.60;;;7.97;;
5549;SDS011;2798;42.716;23.256;2023-02-28T02:39:36;15.33;;;8.87;;
5549;SDS011;2798;42.716;23.256;2023-02-28T02:42:09;10.07;;;7.20;;
5549;SDS011;2798;42.716;23.256;2023-02-28T02:44:40;14.40;;;8.73;;
5549;SDS011;2798;42.716;23.256;2023-02-28T02:47:13;11.67;;;8.40;;
5549;SDS011;2798;42.716;23.256;2023-02-28T02:49:39;11.67;;;8.47;;
5549;SDS011;2798;42.716;23.256;2023-02-28T02:52:08;14.40;;;8.80;;
5549;SDS011;2798;42.716;23.256;2023-02-28T02:54:35;13.47;;;9.10;;
5549;SDS011;2798;42.716;23.256;2023-02-28T02:57:03;14.50;;;9.20;;
5549;SDS011;2798;42.716;23.256;2023-02-28T02:59:29;13.97;;;8.23;;
5549;SDS011;2798;42.716;23.256;2023-02-28T03:01:56;15.53;;;9.47;;
5549;SDS011;2798;42.716;23.256;2023-02-28T03:04:23;14.60;;;8.03;;
5549;SDS011;2798;42.716;23.256;2023-02-28T03:06:50;14.70;;;9.07;;
5549;SDS011;2798;42.716;23.256;2023-02-28T03:09:19;15.70;;;9.70;;
5549;SDS011;2798;42.716;23.256;2023-02-28T03:11:44;14.47;;;8.73;;
5549;SDS011;2798;42.716;23.256;2023-02-28T03:16:36;15.57;;;9.23;;
5549;SDS011;2798;42.716;23.256;2023-02-28T03:26:26;14.60;;;9.47;;
5549;SDS011;2798;42.716;23.256;2023-02-28T03:33:54;16.57;;;8.87;;
5549;SDS011;2798;42.716;23.256;2023-02-28T03:36:27;14.53;;;8.87;;
5549;SDS011;2798;42.716;23.256;2023-02-28T03:39:06;14.90;;;9.40;;
5549;SDS011;2798;42.716;23.256;2023-02-28T03:41:37;19.30;;;10.07;;
5549;SDS011;2798;42.716;23.256;2023-02-28T03:44:05;16.00;;;9.70;;
5549;SDS011;2798;42.716;23.256;2023-02-28T03:46:32;15.83;;;9.33;;
5549;SDS011;2798;42.716;23.256;2023-02-28T03:51:27;15.43;;;9.13;;
5549;SDS011;2798;42.716;23.256;2023-02-28T03:53:54;17.37;;;9.60;;
5549;SDS011;2798;42.716;23.256;2023-02-28T03:56:24;18.50;;;10.63;;
5549;SDS011;2798;42.716;23.256;2023-02-28T04:01:21;17.20;;;9.50;;
5549;SDS011;2798;42.716;23.256;2023-02-28T04:03:46;15.73;;;9.90;;
5549;SDS011;2798;42.716;23.256;2023-02-28T04:06:16;15.40;;;9.87;;
5549;SDS011;2798;42.716;23.256;2023-02-28T04:08:42;17.30;;;9.80;;
5549;SDS011;2798;42.716;23.256;2023-02-28T04:11:12;17.10;;;9.20;;
5549;SDS011;2798;42.716;23.256;2023-02-28T04:13:41;16.23;;;10.90;;
5549;SDS011;2798;42.716;23.256;2023-02-28T04:16:06;15.30;;;9.70;;
5549;SDS011;2798;42.716;23.256;2023-02-28T04:18:37;17.73;;;10.90;;
5549;SDS011;2798;42.716;23.256;2023-02-28T04:21:02;19.53;;;10.80;;
5549;SDS011;2798;42.716;23.256;2023-02-28T04:23:27;17.53;;;10.40;;
5549;SDS011;2798;42.716;23.256;2023-02-28T04:25:54;17.80;;;10.87;;
5549;SDS011;2798;42.716;23.256;2023-02-28T04:28:20;19.90;;;10.70;;
5549;SDS011;2798;42.716;23.256;2023-02-28T04:30:45;21.40;;;11.20;;
5549;SDS011;2798;42.716;23.256;2023-02-28T04:33:10;22.23;;;10.43;;
5549;SDS011;2798;42.716;23.256;2023-02-28T04:35:35;19.67;;;11.23;;
5549;SDS011;2798;42.716;23.256;2023-02-28T04:38:01;18.50;;;10.60;;
5549;SDS011;2798;42.716;23.256;2023-02-28T04:40:26;16.10;;;10.53;;
5549;SDS011;2798;42.716;23.256;2023-02-28T04:42:51;17.07;;;10.70;;
5549;SDS011;2798;42.716;23.256;2023-02-28T04:45:16;19.03;;;10.63;;
5549;SDS011;2798;42.716;23.256;2023-02-28T04:47:42;18.80;;;11.07;;
5549;SDS011;2798;42.716;23.256;2023-02-28T04:50:07;17.57;;;10.70;;
5549;SDS011;2798;42.716;23.256;2023-02-28T04:52:33;21.13;;;11.13;;
5549;SDS011;2798;42.716;23.256;2023-02-28T04:54:58;15.17;;;10.43;;
5549;SDS011;2798;42.716;23.256;2023-02-28T04:57:24;16.80;;;9.90;;
5549;SDS011;2798;42.716;23.256;2023-02-28T04:59:49;16.97;;;10.27;;
5549;SDS011;2798;42.716;23.256;2023-02-28T05:02:14;18.20;;;10.17;;
5549;SDS011;2798;42.716;23.256;2023-02-28T05:04:40;16.97;;;11.20;;
5549;SDS011;2798;42.716;23.256;2023-02-28T05:07:05;15.63;;;9.73;;
5549;SDS011;2798;42.716;23.256;2023-02-28T05:09:30;14.90;;;9.90;;
5549;SDS011;2798;42.716;23.256;2023-02-28T05:11:57;14.13;;;10.13;;
5549;SDS011;2798;42.716;23.256;2023-02-28T05:14:23;14.23;;;9.40;;
5549;SDS011;2798;42.716;23.256;2023-02-28T05:16:48;13.90;;;9.10;;
5549;SDS011;2798;42.716;23.256;2023-02-28T05:19:13;15.20;;;9.30;;
5549;SDS011;2798;42.716;23.256;2023-02-28T05:21:48;18.93;;;9.23;;
5549;SDS011;2798;42.716;23.256;2023-02-28T05:24:14;15.30;;;9.53;;
5549;SDS011;2798;42.716;23.256;2023-02-28T05:26:40;15.13;;;9.53;;
5549;SDS011;2798;42.716;23.256;2023-02-28T05:29:05;16.03;;;10.50;;
5549;SDS011;2798;42.716;23.256;2023-02-28T05:31:31;16.37;;;9.70;;
5549;SDS011;2798;42.716;23.256;2023-02-28T05:33:56;17.10;;;9.70;;
5549;SDS011;2798;42.716;23.256;2023-02-28T05:36:26;15.13;;;9.10;;
5549;SDS011;2798;42.716;23.256;2023-02-28T05:38:52;18.00;;;10.73;;
5549;SDS011;2798;42.716;23.256;2023-02-28T05:41:17;17.10;;;10.90;;
5549;SDS011;2798;42.716;23.256;2023-02-28T05:43:44;16.90;;;8.87;;
5549;SDS011;2798;42.716;23.256;2023-02-28T05:46:10;13.43;;;8.80;;
5549;SDS011;2798;42.716;23.256;2023-02-28T05:48:36;16.30;;;10.63;;
5549;SDS011;2798;42.716;23.256;2023-02-28T05:51:02;15.97;;;9.77;;
5549;SDS011;2798;42.716;23.256;2023-02-28T05:53:27;18.67;;;10.20;;
5549;SDS011;2798;42.716;23.256;2023-02-28T05:55:53;15.77;;;9.93;;
5549;SDS011;2798;42.716;23.256;2023-02-28T05:58:18;15.47;;;10.13;;
5549;SDS011;2798;42.716;23.256;2023-02-28T06:00:43;17.93;;;11.20;;
5549;SDS011;2798;42.716;23.256;2023-02-28T06:03:09;17.50;;;11.03;;
5549;SDS011;2798;42.716;23.256;2023-02-28T06:05:34;18.90;;;11.80;;
5549;SDS011;2798;42.716;23.256;2023-02-28T06:07:59;16.97;;;10.20;;
5549;SDS011;2798;42.716;23.256;2023-02-28T06:10:24;15.03;;;10.40;;
5549;SDS011;2798;42.716;23.256;2023-02-28T06:12:49;18.20;;;10.43;;
5549;SDS011;2798;42.716;23.256;2023-02-28T06:15:15;19.80;;;11.53;;
5549;SDS011;2798;42.716;23.256;2023-02-28T06:17:42;17.83;;;11.33;;
5549;SDS011;2798;42.716;23.256;2023-02-28T06:20:08;17.70;;;11.70;;
5549;SDS011;2798;42.716;23.256;2023-02-28T06:22:34;17.07;;;11.40;;
5549;SDS011;2798;42.716;23.256;2023-02-28T06:25:00;20.07;;;12.20;;
5549;SDS011;2798;42.716;23.256;2023-02-28T06:27:25;17.20;;;11.43;;
5549;SDS011;2798;42.716;23.256;2023-02-28T06:29:53;18.37;;;11.83;;
5549;SDS011;2798;42.716;23.256;2023-02-28T06:32:18;18.57;;;12.40;;
5549;SDS011;2798;42.716;23.256;2023-02-28T06:34:44;21.90;;;13.13;;
5549;SDS011;2798;42.716;23.256;2023-02-28T06:37:09;23.67;;;13.00;;
5549;SDS011;2798;42.716;23.256;2023-02-28T06:39:35;20.03;;;11.93;;
5549;SDS011;2798;42.716;23.256;2023-02-28T06:42:00;25.00;;;14.73;;
5549;SDS011;2798;42.716;23.256;2023-02-28T06:44:25;24.07;;;13.00;;
5549;SDS011;2798;42.716;23.256;2023-02-28T06:46:50;29.73;;;14.80;;
5549;SDS011;2798;42.716;23.256;2023-02-28T06:49:16;20.97;;;13.93;;
5549;SDS011;2798;42.716;23.256;2023-02-28T06:51:43;25.87;;;13.73;;
5549;SDS011;2798;42.716;23.256;2023-02-28T06:54:11;24.60;;;13.10;;
5549;SDS011;2798;42.716;23.256;2023-02-28T06:56:37;21.80;;;14.00;;
5549;SDS011;2798;42.716;23.256;2023-02-28T06:59:02;24.10;;;14.60;;
5549;SDS011;2798;42.716;23.256;2023-02-28T07:01:28;30.10;;;15.67;;
5549;SDS011;2798;42.716;23.256;2023-02-28T07:03:54;23.70;;;14.43;;
5549;SDS011;2798;42.716;23.256;2023-02-28T07:06:20;23.93;;;15.00;;
5549;SDS011;2798;42.716;23.256;2023-02-28T07:08:47;23.03;;;14.57;;
5549;SDS011;2798;42.716;23.256;2023-02-28T07:11:12;23.60;;;14.37;;
5549;SDS011;2798;42.716;23.256;2023-02-28T07:13:38;26.70;;;15.77;;
5549;SDS011;2798;42.716;23.256;2023-02-28T07:16:04;25.63;;;15.40;;
5549;SDS011;2798;42.716;23.256;2023-02-28T07:18:29;25.97;;;15.73;;
5549;SDS011;2798;42.716;23.256;2023-02-28T07:20:55;25.33;;;15.63;;
5549;SDS011;2798;42.716;23.256;2023-02-28T07:23:20;25.70;;;14.77;;
5549;SDS011;2798;42.716;23.256;2023-02-28T07:25:46;25.90;;;15.20;;
5549;SDS011;2798;42.716;23.256;2023-02-28T07:28:12;27.40;;;16.57;;
5549;SDS011;2798;42.716;23.256;2023-02-28T07:30:37;24.77;;;15.07;;
5549;SDS011;2798;42.716;23.256;2023-02-28T07:33:03;25.53;;;15.13;;
5549;SDS011;2798;42.716;23.256;2023-02-28T07:35:28;27.80;;;16.03;;
5549;SDS011;2798;42.716;23.256;2023-02-28T07:37:54;27.43;;;16.17;;
5549;SDS011;2798;42.716;23.256;2023-02-28T07:40:19;32.50;;;16.10;;
5549;SDS011;2798;42.716;23.256;2023-02-28T07:42:44;24.77;;;15.60;;
5549;SDS011;2798;42.716;23.256;2023-02-28T07:45:10;23.63;;;15.30;;
5549;SDS011;2798;42.716;23.256;2023-02-28T07:47:40;28.17;;;15.60;;
5549;SDS011;2798;42.716;23.256;2023-02-28T07:50:07;27.13;;;16.23;;
5549;SDS011;2798;42.716;23.256;2023-02-28T07:52:32;31.60;;;16.40;;
5549;SDS011;2798;42.716;23.256;2023-02-28T07:54:58;27.20;;;16.60;;
5549;SDS011;2798;42.716;23.256;2023-02-28T07:57:23;30.50;;;16.43;;
5549;SDS011;2798;42.716;23.256;2023-02-28T07:59:48;28.43;;;17.07;;
5549;SDS011;2798;42.716;23.256;2023-02-28T08:02:14;27.70;;;15.90;;
5549;SDS011;2798;42.716;23.256;2023-02-28T08:04:39;27.00;;;17.07;;
5549;SDS011;2798;42.716;23.256;2023-02-28T08:07:05;24.13;;;16.30;;
5549;SDS011;2798;42.716;23.256;2023-02-28T08:09:30;26.27;;;15.60;;
5549;SDS011;2798;42.716;23.256;2023-02-28T08:11:55;26.53;;;15.90;;
5549;SDS011;2798;42.716;23.256;2023-02-28T08:14:20;24.40;;;15.13;;
5549;SDS011;2798;42.716;23.256;2023-02-28T08:16:45;25.20;;;16.43;;
5549;SDS011;2798;42.716;23.256;2023-02-28T08:19:11;31.50;;;18.03;;
5549;SDS011;2798;42.716;23.256;2023-02-28T08:21:37;25.83;;;15.80;;
5549;SDS011;2798;42.716;23.256;2023-02-28T08:24:02;27.30;;;17.37;;
5549;SDS011;2798;42.716;23.256;2023-02-28T08:26:29;28.27;;;17.07;;
5549;SDS011;2798;42.716;23.256;2023-02-28T08:28:54;30.60;;;16.83;;
5549;SDS011;2798;42.716;23.256;2023-02-28T08:31:20;31.60;;;17.63;;
5549;SDS011;2798;42.716;23.256;2023-02-28T08:33:45;31.60;;;16.87;;
5549;SDS011;2798;42.716;23.256;2023-02-28T08:36:12;27.70;;;16.53;;
5549;SDS011;2798;42.716;23.256;2023-02-28T08:38:37;28.53;;;16.50;;
5549;SDS011;2798;42.716;23.256;2023-02-28T08:41:04;28.13;;;16.17;;
5549;SDS011;2798;42.716;23.256;2023-02-28T08:43:32;26.63;;;16.10;;
5549;SDS011;2798;42.716;23.256;2023-02-28T08:45:57;30.50;;;16.80;;
5549;SDS011;2798;42.716;23.256;2023-02-28T08:48:23;30.03;;;17.13;;
5549;SDS011;2798;42.716;23.256;2023-02-28T08:50:58;32.17;;;16.70;;
5549;SDS011;2798;42.716;23.256;2023-02-28T08:53:24;27.40;;;17.23;;
5549;SDS011;2798;42.716;23.256;2023-02-28T08:55:56;27.33;;;16.17;;
5549;SDS011;2798;42.716;23.256;2023-02-28T08:58:21;29.13;;;17.10;;
5549;SDS011;2798;42.716;23.256;2023-02-28T09:00:46;27.60;;;16.43;;
5549;SDS011;2798;42.716;23.256;2023-02-28T09:03:11;27.03;;;16.60;;
5549;SDS011;2798;42.716;23.256;2023-02-28T09:05:37;32.93;;;17.10;;
5549;SDS011;2798;42.716;23.256;2023-02-28T09:08:02;25.90;;;16.87;;
5549;SDS011;2798;42.716;23.256;2023-02-28T09:10:28;27.77;;;17.63;;
5549;SDS011;2798;42.716;23.256;2023-02-28T09:12:53;27.43;;;17.10;;
5549;SDS011;2798;42.716;23.256;2023-02-28T09:15:18;23.17;;;15.77;;
5549;SDS011;2798;42.716;23.256;2023-02-28T09:17:43;26.57;;;15.63;;
5549;SDS011;2798;42.716;23.256;2023-02-28T09:20:09;32.73;;;17.03;;
5549;SDS011;2798;42.716;23.256;2023-02-28T09:22:34;27.00;;;16.97;;
5549;SDS011;2798;42.716;23.256;2023-02-28T09:25:00;27.43;;;15.70;;
5549;SDS011;2798;42.716;23.256;2023-02-28T09:27:25;25.37;;;15.70;;
5549;SDS011;2798;42.716;23.256;2023-02-28T09:29:50;26.80;;;17.17;;
5549;SDS011;2798;42.716;23.256;2023-02-28T09:32:16;24.20;;;16.87;;
5549;SDS011;2798;42.716;23.256;2023-02-28T09:34:42;23.87;;;16.13;;
5549;SDS011;2798;42.716;23.256;2023-02-28T09:37:08;27.70;;;17.60;;
5549;SDS011;2798;42.716;23.256;2023-02-28T09:39:33;28.70;;;17.53;;
5549;SDS011;2798;42.716;23.256;2023-02-28T09:41:58;28.90;;;16.00;;
5549;SDS011;2798;42.716;23.256;2023-02-28T09:44:37;26.07;;;16.10;;
5549;SDS011;2798;42.716;23.256;2023-02-28T09:47:14;31.37;;;16.87;;
5549;SDS011;2798;42.716;23.256;2023-02-28T09:49:42;26.40;;;16.70;;
5549;SDS011;2798;42.716;23.256;2023-02-28T09:52:09;31.97;;;18.40;;
5549;SDS011;2798;42.716;23.256;2023-02-28T09:54:35;31.07;;;17.37;;
5549;SDS011;2798;42.716;23.256;2023-02-28T09:57:04;25.70;;;16.60;;
5549;SDS011;2798;42.716;23.256;2023-02-28T10:04:47;22.83;;;16.10;;
5549;SDS011;2798;42.716;23.256;2023-02-28T10:09:50;26.03;;;16.90;;
5549;SDS011;2798;42.716;23.256;2023-02-28T10:12:16;26.63;;;17.37;;
5549;SDS011;2798;42.716;23.256;2023-02-28T10:14:43;25.70;;;16.07;;
5549;SDS011;2798;42.716;23.256;2023-02-28T10:19:58;24.50;;;16.70;;
5549;SDS011;2798;42.716;23.256;2023-02-28T10:22:21;26.43;;;16.70;;
5549;SDS011;2798;42.716;23.256;2023-02-28T10:24:48;27.83;;;16.03;;
5549;SDS011;2798;42.716;23.256;2023-02-28T10:27:23;25.03;;;16.97;;
5549;SDS011;2798;42.716;23.256;2023-02-28T10:29:50;30.33;;;18.50;;
5549;SDS011;2798;42.716;23.256;2023-02-28T10:32:16;28.77;;;19.00;;
5549;SDS011;2798;42.716;23.256;2023-02-28T10:34:42;24.67;;;16.73;;
5549;SDS011;2798;42.716;23.256;2023-02-28T10:37:07;24.90;;;17.00;;
5549;SDS011;2798;42.716;23.256;2023-02-28T10:39:41;28.47;;;16.43;;
5549;SDS011;2798;42.716;23.256;2023-02-28T10:42:18;26.53;;;16.33;;
5549;SDS011;2798;42.716;23.256;2023-02-28T10:44:44;27.97;;;16.87;;
5549;SDS011;2798;42.716;23.256;2023-02-28T10:47:14;28.27;;;16.67;;
5549;SDS011;2798;42.716;23.256;2023-02-28T10:49:39;24.53;;;15.07;;
5549;SDS011;2798;42.716;23.256;2023-02-28T10:52:11;24.17;;;15.90;;
5549;SDS011;2798;42.716;23.256;2023-02-28T10:54:36;24.63;;;15.20;;
5549;SDS011;2798;42.716;23.256;2023-02-28T10:59:31;26.40;;;14.30;;
5549;SDS011;2798;42.716;23.256;2023-02-28T11:01:57;25.80;;;13.80;;
5549;SDS011;2798;42.716;23.256;2023-02-28T11:06:47;25.50;;;15.10;;
5549;SDS011;2798;42.716;23.256;2023-02-28T11:11:54;22.67;;;12.53;;
5549;SDS011;2798;42.716;23.256;2023-02-28T11:16:44;21.00;;;11.77;;
5549;SDS011;2798;42.716;23.256;2023-02-28T11:19:16;21.53;;;12.60;;
5549;SDS011;2798;42.716;23.256;2023-02-28T11:21:45;20.40;;;13.60;;
5549;SDS011;2798;42.716;23.256;2023-02-28T11:24:21;19.80;;;11.50;;
5549;SDS011;2798;42.716;23.256;2023-02-28T11:26:48;23.70;;;13.00;;
5549;SDS011;2798;42.716;23.256;2023-02-28T11:34:29;24.20;;;11.10;;
5549;SDS011;2798;42.716;23.256;2023-02-28T11:36:55;17.93;;;10.77;;
5549;SDS011;2798;42.716;23.256;2023-02-28T11:39:22;17.40;;;11.00;;
5549;SDS011;2798;42.716;23.256;2023-02-28T11:44:48;17.03;;;10.30;;
5549;SDS011;2798;42.716;23.256;2023-02-28T11:52:34;18.63;;;9.93;;
5549;SDS011;2798;42.716;23.256;2023-02-28T12:05:49;16.40;;;9.93;;
5549;SDS011;2798;42.716;23.256;2023-02-28T12:13:29;21.67;;;9.20;;
5549;SDS011;2798;42.716;23.256;2023-02-28T12:18:26;17.10;;;9.67;;
5549;SDS011;2798;42.716;23.256;2023-02-28T12:21:04;12.60;;;8.23;;
5549;SDS011;2798;42.716;23.256;2023-02-28T12:26:10;13.97;;;9.37;;
5549;SDS011;2798;42.716;23.256;2023-02-28T12:28:41;24.33;;;9.60;;
5549;SDS011;2798;42.716;23.256;2023-02-28T12:31:12;18.00;;;9.93;;
5549;SDS011;2798;42.716;23.256;2023-02-28T12:33:40;14.03;;;8.97;;
5549;SDS011;2798;42.716;23.256;2023-02-28T12:36:10;14.53;;;8.73;;
5549;SDS011;2798;42.716;23.256;2023-02-28T12:38:41;18.70;;;8.50;;
5549;SDS011;2798;42.716;23.256;2023-02-28T12:41:13;20.10;;;9.60;;
5549;SDS011;2798;42.716;23.256;2023-02-28T12:43:46;18.50;;;8.70;;
5549;SDS011;2798;42.716;23.256;2023-02-28T12:48:55;20.30;;;8.97;;
5549;SDS011;2798;42.716;23.256;2023-02-28T12:51:21;19.83;;;9.50;;
5549;SDS011;2798;42.716;23.256;2023-02-28T12:56:17;16.93;;;8.10;;
5549;SDS011;2798;42.716;23.256;2023-02-28T13:09:16;13.57;;;8.00;;
5549;SDS011;2798;42.716;23.256;2023-02-28T13:14:52;19.63;;;7.90;;
5549;SDS011;2798;42.716;23.256;2023-02-28T13:19:25;16.03;;;8.70;;
5549;SDS011;2798;42.716;23.256;2023-02-28T13:21:50;14.13;;;7.50;;
5549;SDS011;2798;42.716;23.256;2023-02-28T13:29:40;15.80;;;8.17;;
5549;SDS011;2798;42.716;23.256;2023-02-28T13:34:37;19.67;;;8.80;;
5549;SDS011;2798;42.716;23.256;2023-02-28T13:47:30;15.10;;;8.30;;
5549;SDS011;2798;42.716;23.256;2023-02-28T13:50:14;16.17;;;8.27;;
5549;SDS011;2798;42.716;23.256;2023-02-28T13:58:10;13.37;;;7.97;;
5549;SDS011;2798;42.716;23.256;2023-02-28T14:00:43;11.40;;;7.90;;
5549;SDS011;2798;42.716;23.256;2023-02-28T14:05:38;18.07;;;8.20;;
5549;SDS011;2798;42.716;23.256;2023-02-28T14:08:08;24.10;;;8.20;;
5549;SDS011;2798;42.716;23.256;2023-02-28T14:10:48;18.93;;;8.33;;
5549;SDS011;2798;42.716;23.256;2023-02-28T14:16:01;15.87;;;8.27;;
5549;SDS011;2798;42.716;23.256;2023-02-28T14:18:31;14.83;;;8.07;;
5549;SDS011;2798;42.716;23.256;2023-02-28T14:20:58;14.43;;;7.77;;
5549;SDS011;2798;42.716;23.256;2023-02-28T14:28:50;12.73;;;7.70;;
5549;SDS011;2798;42.716;23.256;2023-02-28T14:36:44;13.07;;;8.17;;
5549;SDS011;2798;42.716;23.256;2023-02-28T14:41:39;22.03;;;7.60;;
5549;SDS011;2798;42.716;23.256;2023-02-28T14:44:21;16.57;;;7.87;;
5549;SDS011;2798;42.716;23.256;2023-02-28T14:46:50;16.37;;;9.10;;
5549;SDS011;2798;42.716;23.256;2023-02-28T14:49:18;14.27;;;8.40;;
5549;SDS011;2798;42.716;23.256;2023-02-28T14:51:48;18.13;;;9.00;;
5549;SDS011;2798;42.716;23.256;2023-02-28T14:54:15;14.57;;;8.57;;
5549;SDS011;2798;42.716;23.256;2023-02-28T14:56:41;26.23;;;8.60;;
5549;SDS011;2798;42.716;23.256;2023-02-28T14:59:21;15.73;;;8.07;;
5549;SDS011;2798;42.716;23.256;2023-02-28T15:01:47;14.27;;;8.10;;
5549;SDS011;2798;42.716;23.256;2023-02-28T15:04:16;20.87;;;8.33;;
5549;SDS011;2798;42.716;23.256;2023-02-28T15:06:43;14.00;;;8.30;;
5549;SDS011;2798;42.716;23.256;2023-02-28T15:09:16;15.10;;;7.93;;
5549;SDS011;2798;42.716;23.256;2023-02-28T15:11:41;13.13;;;7.83;;
5549;SDS011;2798;42.716;23.256;2023-02-28T15:14:14;18.40;;;8.70;;
5549;SDS011;2798;42.716;23.256;2023-02-28T15:16:41;14.47;;;8.30;;
5549;SDS011;2798;42.716;23.256;2023-02-28T15:19:14;16.20;;;8.80;;
5549;SDS011;2798;42.716;23.256;2023-02-28T15:21:43;13.33;;;8.00;;
5549;SDS011;2798;42.716;23.256;2023-02-28T15:26:59;13.77;;;7.90;;
5549;SDS011;2798;42.716;23.256;2023-02-28T15:29:25;18.13;;;7.57;;
5549;SDS011;2798;42.716;23.256;2023-02-28T15:32:03;14.07;;;8.37;;
5549;SDS011;2798;42.716;23.256;2023-02-28T15:34:35;13.57;;;8.30;;
5549;SDS011;2798;42.716;23.256;2023-02-28T15:37:02;12.07;;;8.07;;
5549;SDS011;2798;42.716;23.256;2023-02-28T15:39:31;17.53;;;7.57;;
5549;SDS011;2798;42.716;23.256;2023-02-28T15:42:12;13.83;;;8.17;;
5549;SDS011;2798;42.716;23.256;2023-02-28T15:44:37;21.43;;;8.90;;
5549;SDS011;2798;42.716;23.256;2023-02-28T15:52:19;11.50;;;7.77;;
5549;SDS011;2798;42.716;23.256;2023-02-28T15:54:45;12.43;;;8.50;;
5549;SDS011;2798;42.716;23.256;2023-02-28T15:57:15;15.90;;;8.87;;
5549;SDS011;2798;42.716;23.256;2023-02-28T15:59:45;16.70;;;8.05;;
5549;SDS011;2798;42.716;23.256;2023-02-28T16:02:15;14.90;;;7.70;;
5549;SDS011;2798;42.716;23.256;2023-02-28T16:04:59;14.00;;;8.20;;
5549;SDS011;2798;42.716;23.256;2023-02-28T16:07:24;9.53;;;6.97;;
5549;SDS011;2798;42.716;23.256;2023-02-28T16:09:50;11.00;;;7.50;;
5549;SDS011;2798;42.716;23.256;2023-02-28T16:12:16;10.50;;;7.23;;
5549;SDS011;2798;42.716;23.256;2023-02-28T16:14:41;13.83;;;7.70;;
5549;SDS011;2798;42.716;23.256;2023-02-28T16:17:13;16.60;;;10.27;;
5549;SDS011;2798;42.716;23.256;2023-02-28T16:19:41;16.27;;;10.63;;
5549;SDS011;2798;42.716;23.256;2023-02-28T16:22:07;22.20;;;9.63;;
5549;SDS011;2798;42.716;23.256;2023-02-28T16:24:33;14.70;;;9.20;;
5549;SDS011;2798;42.716;23.256;2023-02-28T16:26:59;14.27;;;9.00;;
5549;SDS011;2798;42.716;23.256;2023-02-28T16:29:26;13.33;;;8.30;;
5549;SDS011;2798;42.716;23.256;2023-02-28T16:31:52;13.60;;;8.40;;
5549;SDS011;2798;42.716;23.256;2023-02-28T16:34:18;13.40;;;7.90;;
5549;SDS011;2798;42.716;23.256;2023-02-28T16:36:45;15.87;;;9.53;;
5549;SDS011;2798;42.716;23.256;2023-02-28T16:39:11;17.83;;;8.53;;
5549;SDS011;2798;42.716;23.256;2023-02-28T16:41:36;12.37;;;8.30;;
5549;SDS011;2798;42.716;23.256;2023-02-28T16:44:01;13.77;;;8.20;;
5549;SDS011;2798;42.716;23.256;2023-02-28T16:46:28;9.90;;;7.30;;
5549;SDS011;2798;42.716;23.256;2023-02-28T16:48:54;13.37;;;7.30;;
5549;SDS011;2798;42.716;23.256;2023-02-28T16:51:20;8.77;;;7.00;;
5549;SDS011;2798;42.716;23.256;2023-02-28T16:53:45;14.50;;;7.13;;
5549;SDS011;2798;42.716;23.256;2023-02-28T16:56:17;9.93;;;7.00;;
5549;SDS011;2798;42.716;23.256;2023-02-28T16:58:43;10.90;;;7.57;;
5549;SDS011;2798;42.716;23.256;2023-02-28T17:01:09;15.13;;;7.10;;
5549;SDS011;2798;42.716;23.256;2023-02-28T17:03:34;8.27;;;6.77;;
5549;SDS011;2798;42.716;23.256;2023-02-28T17:06:01;9.10;;;6.60;;
5549;SDS011;2798;42.716;23.256;2023-02-28T17:08:26;12.47;;;7.30;;
5549;SDS011;2798;42.716;23.256;2023-02-28T17:10:53;14.57;;;7.00;;
5549;SDS011;2798;42.716;23.256;2023-02-28T17:13:18;13.70;;;6.53;;
5549;SDS011;2798;42.716;23.256;2023-02-28T17:15:44;12.30;;;6.67;;
5549;SDS011;2798;42.716;23.256;2023-02-28T17:18:13;9.17;;;6.20;;
5549;SDS011;2798;42.716;23.256;2023-02-28T17:20:40;8.33;;;5.70;;
5549;SDS011;2798;42.716;23.256;2023-02-28T17:23:07;16.50;;;10.30;;
5549;SDS011;2798;42.716;23.256;2023-02-28T17:25:32;13.03;;;7.93;;